createdAt,value
2017-09-01T00:00:14.421Z,1015.4
2017-09-01T00:01:15.064Z,1015.4
2017-09-01T00:02:15.707Z,1015.4
2017-09-01T00:03:16.349Z,1015.5
2017-09-01T00:04:16.990Z,1015.5
2017-09-01T00:05:17.632Z,1015.5
2017-09-01T00:06:18.277Z,1015.5
2017-09-01T00:07:18.920Z,1015.5
2017-09-01T00:08:19.563Z,1015.5
2017-09-01T00:09:20.206Z,1015.5
2017-09-01T00:10:20.849Z,1015.5
2017-09-01T00:11:21.492Z,1015.5
2017-09-01T00:12:22.136Z,1015.5
2017-09-01T00:13:22.927Z,1015.6
2017-09-01T00:14:23.569Z,1015.5
2017-09-01T00:15:24.214Z,1015.5
2017-09-01T00:16:24.858Z,1015.5
2017-09-01T00:17:25.499Z,1015.5
2017-09-01T00:18:26.142Z,1015.5
2017-09-01T00:19:26.785Z,1015.5
2017-09-01T00:20:27.428Z,1015.5
2017-09-01T00:21:28.072Z,1015.5
2017-09-01T00:22:28.714Z,1015.4
2017-09-01T00:23:29.357Z,1015.5
2017-09-01T00:24:30.001Z,1015.5
2017-09-01T00:25:30.640Z,1015.5
2017-09-01T00:26:31.282Z,1015.5
2017-09-01T00:27:31.925Z,1015.4
2017-09-01T00:28:32.718Z,1015.4
2017-09-01T00:29:33.363Z,1015.5
2017-09-01T00:30:34.006Z,1015.4
2017-09-01T00:31:34.650Z,1015.4
2017-09-01T00:32:35.292Z,1015.4
2017-09-01T00:33:35.936Z,1015.4
2017-09-01T00:34:36.579Z,1015.4
2017-09-01T00:35:37.223Z,1015.4
2017-09-01T00:36:37.866Z,1015.4
2017-09-01T00:37:38.510Z,1015.4
2017-09-01T00:38:39.151Z,1015.4
2017-09-01T00:39:39.794Z,1015.4
2017-09-01T00:40:40.436Z,1015.4
2017-09-01T00:41:41.076Z,1015.4
2017-09-01T00:42:41.718Z,1015.4
2017-09-01T00:43:42.612Z,1015.3
2017-09-01T00:44:43.255Z,1015.4
2017-09-01T00:45:43.899Z,1015.4
2017-09-01T00:46:44.545Z,1015.3
2017-09-01T00:47:45.188Z,1015.3
2017-09-01T00:48:45.835Z,1015.4
2017-09-01T00:49:46.477Z,1015.3
2017-09-01T00:50:47.122Z,1015.3
2017-09-01T00:51:47.765Z,1015.3
2017-09-01T00:52:48.408Z,1015.3
2017-09-01T00:53:49.055Z,1015.3
2017-09-01T00:54:49.703Z,1015.3
2017-09-01T00:55:50.347Z,1015.3
2017-09-01T00:56:50.992Z,1015.3
2017-09-01T00:57:51.633Z,1015.3
2017-09-01T00:58:52.425Z,1015.4
2017-09-01T00:59:53.069Z,1015.3
2017-09-01T01:00:53.712Z,1015.3
2017-09-01T01:01:54.355Z,1015.3
2017-09-01T01:02:54.998Z,1015.3
2017-09-01T01:03:55.643Z,1015.3
2017-09-01T01:04:56.286Z,1015.3
2017-09-01T01:05:56.931Z,1015.3
2017-09-01T01:06:57.574Z,1015.3
2017-09-01T01:07:58.219Z,1015.3
2017-09-01T01:08:58.862Z,1015.3
2017-09-01T01:09:59.506Z,1015.3
2017-09-01T01:11:00.151Z,1015.3
2017-09-01T01:12:00.796Z,1015.3
2017-09-01T01:13:01.438Z,1015.3
2017-09-01T01:14:02.183Z,1015.3
2017-09-01T01:15:02.826Z,1015.3
2017-09-01T01:16:03.475Z,1015.3
2017-09-01T01:17:04.112Z,1015.3
2017-09-01T01:18:04.754Z,1015.3
2017-09-01T01:19:05.395Z,1015.3
2017-09-01T01:20:06.039Z,1015.3
2017-09-01T01:21:06.682Z,1015.4
2017-09-01T01:22:07.324Z,1015.3
2017-09-01T01:23:07.967Z,1015.3
2017-09-01T01:24:08.611Z,1015.4
2017-09-01T01:25:09.253Z,1015.4
2017-09-01T01:26:09.897Z,1015.4
2017-09-01T01:27:10.538Z,1015.4
2017-09-01T01:28:11.180Z,1015.4
2017-09-01T01:29:12.074Z,1015.4
2017-09-01T01:30:12.716Z,1015.4
2017-09-01T01:31:13.359Z,1015.4
2017-09-01T01:32:14.036Z,1015.4
2017-09-01T01:33:14.681Z,1015.4
2017-09-01T01:34:15.322Z,1015.4
2017-09-01T01:35:15.966Z,1015.4
2017-09-01T01:36:16.608Z,1015.4
2017-09-01T01:37:17.251Z,1015.4
2017-09-01T01:38:17.893Z,1015.4
2017-09-01T01:39:18.535Z,1015.4
2017-09-01T01:40:19.179Z,1015.4
2017-09-01T01:41:19.819Z,1015.4
2017-09-01T01:42:20.463Z,1015.4
2017-09-01T01:43:21.104Z,1015.4
2017-09-01T01:44:21.999Z,1015.4
2017-09-01T01:45:22.643Z,1015.4
2017-09-01T01:46:23.288Z,1015.4
2017-09-01T01:47:23.935Z,1015.4
2017-09-01T01:48:24.583Z,1015.4
2017-09-01T01:49:25.226Z,1015.4
2017-09-01T01:50:25.869Z,1015.4
2017-09-01T01:51:26.511Z,1015.4
2017-09-01T01:52:27.155Z,1015.4
2017-09-01T01:53:27.797Z,1015.4
2017-09-01T01:54:28.441Z,1015.4
2017-09-01T01:55:29.085Z,1015.4
2017-09-01T01:56:29.728Z,1015.3
2017-09-01T01:57:30.373Z,1015.3
2017-09-01T01:58:31.016Z,1015.4
2017-09-01T01:59:31.760Z,1015.3
2017-09-01T02:00:32.401Z,1015.3
2017-09-01T02:01:33.042Z,1015.3
2017-09-01T02:02:33.685Z,1015.3
2017-09-01T02:03:34.327Z,1015.3
2017-09-01T02:04:34.969Z,1015.3
2017-09-01T02:05:35.610Z,1015.3
2017-09-01T02:06:36.254Z,1015.2
2017-09-01T02:07:36.904Z,1015.2
2017-09-01T02:08:37.544Z,1015.2
2017-09-01T02:09:38.185Z,1015.2
2017-09-01T02:10:38.830Z,1015.2
2017-09-01T02:11:39.472Z,1015.2
2017-09-01T02:12:40.117Z,1015.2
2017-09-01T02:13:40.760Z,1015.2
2017-09-01T02:14:41.504Z,1015.2
2017-09-01T02:15:42.147Z,1015.1
2017-09-01T02:16:42.788Z,1015.2
2017-09-01T02:17:43.431Z,1015.2
2017-09-01T02:18:44.074Z,1015.1
2017-09-01T02:19:44.716Z,1015.2
2017-09-01T02:20:45.361Z,1015.1
2017-09-01T02:21:46.003Z,1015.2
2017-09-01T02:22:46.652Z,1015.2
2017-09-01T02:23:47.289Z,1015.2
2017-09-01T02:24:47.933Z,1015.2
2017-09-01T02:25:48.575Z,1015.2
2017-09-01T02:26:49.218Z,1015.2
2017-09-01T02:27:49.866Z,1015.2
2017-09-01T02:28:50.506Z,1015.2
2017-09-01T02:29:51.399Z,1015.2
2017-09-01T02:30:52.041Z,1015.2
2017-09-01T02:31:52.684Z,1015.2
2017-09-01T02:32:53.325Z,1015.2
2017-09-01T02:33:53.966Z,1015.2
2017-09-01T02:34:54.607Z,1015.2
2017-09-01T02:35:55.252Z,1015.2
2017-09-01T02:36:55.895Z,1015.2
2017-09-01T02:37:56.539Z,1015.2
2017-09-01T02:38:57.180Z,1015.2
2017-09-01T02:39:57.825Z,1015.2
2017-09-01T02:40:58.469Z,1015.2
2017-09-01T02:41:59.114Z,1015.2
2017-09-01T02:42:59.756Z,1015.2
2017-09-01T02:44:00.400Z,1015.2
2017-09-01T02:45:01.294Z,1015.2
2017-09-01T02:46:01.937Z,1015.1
2017-09-01T02:47:02.579Z,1015.1
2017-09-01T02:48:03.220Z,1015.1
2017-09-01T02:49:03.862Z,1015.1
2017-09-01T02:50:04.503Z,1015.1
2017-09-01T02:51:05.146Z,1015.1
2017-09-01T02:52:05.808Z,1015.1
2017-09-01T02:53:06.451Z,1015.0
2017-09-01T02:54:07.094Z,1015.1
2017-09-01T02:55:07.736Z,1015.0
2017-09-01T02:56:08.381Z,1015.0
2017-09-01T02:57:09.024Z,1015.0
2017-09-01T02:58:09.668Z,1015.0
2017-09-01T02:59:10.312Z,1015.0
2017-09-01T03:00:11.056Z,1015.0
2017-09-01T03:01:11.698Z,1015.0
2017-09-01T03:02:12.340Z,1015.0
2017-09-01T03:03:12.982Z,1014.9
2017-09-01T03:04:13.630Z,1014.9
2017-09-01T03:05:14.268Z,1014.9
2017-09-01T03:06:14.912Z,1014.9
2017-09-01T03:07:15.560Z,1014.9
2017-09-01T03:08:16.199Z,1014.9
2017-09-01T03:09:16.841Z,1014.9
2017-09-01T03:10:17.485Z,1015.0
2017-09-01T03:11:18.128Z,1014.9
2017-09-01T03:12:18.811Z,1014.9
2017-09-01T03:13:19.431Z,1014.9
2017-09-01T03:14:20.074Z,1014.9
2017-09-01T03:15:20.966Z,1014.9
2017-09-01T03:16:21.609Z,1014.9
2017-09-01T03:17:22.252Z,1014.9
2017-09-01T03:18:22.896Z,1014.9
2017-09-01T03:19:23.538Z,1014.9
2017-09-01T03:20:24.182Z,1014.9
2017-09-01T03:21:24.824Z,1014.9
2017-09-01T03:22:25.469Z,1015.0
2017-09-01T03:23:26.112Z,1014.9
2017-09-01T03:24:26.756Z,1015.0
2017-09-01T03:25:27.402Z,1014.9
2017-09-01T03:26:28.048Z,1015.0
2017-09-01T03:27:28.691Z,1015.0
2017-09-01T03:28:29.334Z,1015.0
2017-09-01T03:29:29.977Z,1015.0
2017-09-01T03:30:30.720Z,1015.0
2017-09-01T03:31:31.360Z,1014.9
2017-09-01T03:32:32.000Z,1014.9
2017-09-01T03:33:32.641Z,1015.0
2017-09-01T03:34:33.287Z,1014.9
2017-09-01T03:35:33.927Z,1014.9
2017-09-01T03:36:34.573Z,1015.0
2017-09-01T03:37:35.214Z,1014.9
2017-09-01T03:38:35.858Z,1014.9
2017-09-01T03:39:36.499Z,1014.9
2017-09-01T03:40:37.143Z,1014.9
2017-09-01T03:41:37.786Z,1014.9
2017-09-01T03:42:38.431Z,1014.9
2017-09-01T03:43:39.075Z,1015.0
2017-09-01T03:44:39.719Z,1014.9
2017-09-01T03:45:40.613Z,1015.0
2017-09-01T03:46:41.254Z,1015.0
2017-09-01T03:47:41.896Z,1014.9
2017-09-01T03:48:42.538Z,1014.9
2017-09-01T03:49:43.180Z,1015.0
2017-09-01T03:50:43.821Z,1014.9
2017-09-01T03:51:44.465Z,1015.0
2017-09-01T03:52:45.107Z,1014.9
2017-09-01T03:53:45.755Z,1014.9
2017-09-01T03:54:46.392Z,1014.9
2017-09-01T03:55:47.036Z,1015.0
2017-09-01T03:56:47.678Z,1014.9
2017-09-01T03:57:48.322Z,1014.9
2017-09-01T03:58:48.965Z,1014.9
2017-09-01T03:59:49.611Z,1015.0
2017-09-01T04:00:50.504Z,1014.9
2017-09-01T04:01:51.145Z,1014.9
2017-09-01T04:02:51.789Z,1015.0
2017-09-01T04:03:52.434Z,1015.0
2017-09-01T04:04:53.072Z,1015.0
2017-09-01T04:05:53.714Z,1015.0
2017-09-01T04:06:54.359Z,1015.0
2017-09-01T04:07:55.004Z,1015.0
2017-09-01T04:08:55.645Z,1014.9
2017-09-01T04:09:56.291Z,1015.0
2017-09-01T04:10:56.928Z,1015.0
2017-09-01T04:11:57.570Z,1014.9
2017-09-01T04:12:58.215Z,1015.0
2017-09-01T04:13:58.856Z,1015.0
2017-09-01T04:14:59.498Z,1014.9
2017-09-01T04:16:00.392Z,1014.9
2017-09-01T04:17:01.034Z,1014.9
2017-09-01T04:18:01.677Z,1015.0
2017-09-01T04:19:02.321Z,1015.0
2017-09-01T04:20:02.964Z,1015.0
2017-09-01T04:21:03.606Z,1015.0
2017-09-01T04:22:04.256Z,1015.0
2017-09-01T04:23:04.893Z,1015.0
2017-09-01T04:24:05.538Z,1015.0
2017-09-01T04:25:06.180Z,1015.0
2017-09-01T04:26:06.823Z,1015.0
2017-09-01T04:27:07.466Z,1015.0
2017-09-01T04:28:08.110Z,1015.0
2017-09-01T04:29:08.752Z,1015.0
2017-09-01T04:30:09.396Z,1015.0
2017-09-01T04:31:10.288Z,1015.0
2017-09-01T04:32:10.976Z,1015.0
2017-09-01T04:33:11.618Z,1015.0
2017-09-01T04:34:12.259Z,1015.0
2017-09-01T04:35:12.902Z,1015.0
2017-09-01T04:36:13.543Z,1015.0
2017-09-01T04:37:14.186Z,1015.0
2017-09-01T04:38:14.829Z,1015.0
2017-09-01T04:39:15.478Z,1015.0
2017-09-01T04:40:16.115Z,1015.0
2017-09-01T04:41:16.759Z,1015.1
2017-09-01T04:42:17.402Z,1015.1
2017-09-01T04:43:18.046Z,1015.1
2017-09-01T04:44:18.688Z,1015.1
2017-09-01T04:45:19.333Z,1015.1
2017-09-01T04:46:20.126Z,1015.1
2017-09-01T04:47:20.768Z,1015.1
2017-09-01T04:48:21.412Z,1015.1
2017-09-01T04:49:22.055Z,1015.2
2017-09-01T04:50:22.703Z,1015.2
2017-09-01T04:51:23.342Z,1015.2
2017-09-01T04:52:23.985Z,1015.2
2017-09-01T04:53:24.628Z,1015.2
2017-09-01T04:54:25.272Z,1015.2
2017-09-01T04:55:25.913Z,1015.3
2017-09-01T04:56:26.554Z,1015.2
2017-09-01T04:57:27.194Z,1015.3
2017-09-01T04:58:27.835Z,1015.3
2017-09-01T04:59:28.480Z,1015.3
2017-09-01T05:00:29.121Z,1015.3
2017-09-01T05:01:29.915Z,1015.3
2017-09-01T05:02:30.565Z,1015.3
2017-09-01T05:03:31.200Z,1015.3
2017-09-01T05:04:31.842Z,1015.3
2017-09-01T05:05:32.484Z,1015.3
2017-09-01T05:06:33.126Z,1015.3
2017-09-01T05:07:33.767Z,1015.3
2017-09-01T05:08:34.409Z,1015.3
2017-09-01T05:09:35.052Z,1015.3
2017-09-01T05:10:35.693Z,1015.3
2017-09-01T05:11:36.338Z,1015.3
2017-09-01T05:12:36.975Z,1015.3
2017-09-01T05:13:37.618Z,1015.4
2017-09-01T05:14:38.261Z,1015.3
2017-09-01T05:15:38.905Z,1015.4
2017-09-01T05:16:39.702Z,1015.4
2017-09-01T05:17:40.349Z,1015.4
2017-09-01T05:18:40.991Z,1015.4
2017-09-01T05:19:41.636Z,1015.4
2017-09-01T05:20:42.278Z,1015.4
2017-09-01T05:21:42.919Z,1015.4
2017-09-01T05:22:43.563Z,1015.3
2017-09-01T05:23:44.205Z,1015.4
2017-09-01T05:24:44.849Z,1015.3
2017-09-01T05:25:45.490Z,1015.3
2017-09-01T05:26:46.134Z,1015.3
2017-09-01T05:27:46.777Z,1015.4
2017-09-01T05:28:47.421Z,1015.4
2017-09-01T05:29:48.063Z,1015.4
2017-09-01T05:30:48.708Z,1015.4
2017-09-01T05:31:49.450Z,1015.4
2017-09-01T05:32:50.092Z,1015.4
2017-09-01T05:33:50.736Z,1015.4
2017-09-01T05:34:51.384Z,1015.4
2017-09-01T05:35:52.045Z,1015.4
2017-09-01T05:36:52.667Z,1015.4
2017-09-01T05:37:53.312Z,1015.4
2017-09-01T05:38:53.958Z,1015.5
2017-09-01T05:39:54.601Z,1015.5
2017-09-01T05:40:55.242Z,1015.4
2017-09-01T05:41:55.884Z,1015.5
2017-09-01T05:42:56.827Z,1015.4
2017-09-01T05:43:57.470Z,1015.4
2017-09-01T05:44:58.113Z,1015.4
2017-09-01T05:45:58.756Z,1015.4
2017-09-01T05:46:59.399Z,1015.5
2017-09-01T05:48:00.040Z,1015.5
2017-09-01T05:49:00.684Z,1015.5
2017-09-01T05:50:01.327Z,1015.6
2017-09-01T05:51:01.972Z,1015.6
2017-09-01T05:52:02.715Z,1015.6
2017-09-01T05:53:03.557Z,1015.6
2017-09-01T05:54:04.199Z,1015.6
2017-09-01T05:55:04.846Z,1015.6
2017-09-01T05:56:05.491Z,1015.6
2017-09-01T05:57:06.140Z,1015.6
2017-09-01T05:58:06.885Z,1015.5
2017-09-01T05:59:07.529Z,1015.6
2017-09-01T06:00:08.174Z,1015.5
2017-09-01T06:01:08.965Z,1015.5
2017-09-01T06:02:09.609Z,1015.6
2017-09-01T06:03:10.453Z,1015.6
2017-09-01T06:04:11.194Z,1015.6
2017-09-01T06:05:11.937Z,1015.6
2017-09-01T06:06:12.729Z,1015.6
2017-09-01T06:07:13.372Z,1015.7
2017-09-01T06:08:14.013Z,1015.6
2017-09-01T06:09:14.654Z,1015.7
2017-09-01T06:10:15.298Z,1015.7
2017-09-01T06:11:15.940Z,1015.6
2017-09-01T06:12:16.620Z,1015.7
2017-09-01T06:13:17.255Z,1015.7
2017-09-01T06:14:17.897Z,1015.7
2017-09-01T06:15:18.539Z,1015.7
2017-09-01T06:16:19.182Z,1015.7
2017-09-01T06:17:19.826Z,1015.7
2017-09-01T06:18:20.471Z,1015.7
2017-09-01T06:19:21.112Z,1015.7
2017-09-01T06:20:21.752Z,1015.7
2017-09-01T06:21:22.395Z,1015.7
2017-09-01T06:22:23.246Z,1015.7
2017-09-01T06:23:24.032Z,1015.7
2017-09-01T06:24:24.673Z,1015.8
2017-09-01T06:25:25.317Z,1015.8
2017-09-01T06:26:25.958Z,1015.8
2017-09-01T06:27:26.602Z,1015.8
2017-09-01T06:28:27.244Z,1015.8
2017-09-01T06:29:27.892Z,1015.8
2017-09-01T06:30:28.530Z,1015.8
2017-09-01T06:31:29.177Z,1015.7
2017-09-01T06:32:29.976Z,1015.7
2017-09-01T06:33:30.618Z,1015.7
2017-09-01T06:34:31.261Z,1015.7
2017-09-01T06:35:31.903Z,1015.7
2017-09-01T06:36:32.552Z,1015.7
2017-09-01T06:37:33.188Z,1015.7
2017-09-01T06:38:33.831Z,1015.7
2017-09-01T06:39:34.474Z,1015.7
2017-09-01T06:40:35.418Z,1015.7
2017-09-01T06:41:36.064Z,1015.7
2017-09-01T06:42:36.702Z,1015.7
2017-09-01T06:43:37.348Z,1015.7
2017-09-01T06:44:38.147Z,1015.7
2017-09-01T06:45:38.790Z,1015.7
2017-09-01T06:46:39.431Z,1015.6
2017-09-01T06:47:40.075Z,1015.6
2017-09-01T06:48:40.717Z,1015.6
2017-09-01T06:49:41.360Z,1015.6
2017-09-01T06:50:42.003Z,1015.7
2017-09-01T06:51:42.645Z,1015.7
2017-09-01T06:52:43.287Z,1015.6
2017-09-01T06:53:44.030Z,1015.6
2017-09-01T06:54:44.671Z,1015.6
2017-09-01T06:55:45.713Z,1015.6
2017-09-01T06:56:46.357Z,1015.7
2017-09-01T06:57:47.000Z,1015.6
2017-09-01T06:58:47.643Z,1015.6
2017-09-01T06:59:48.386Z,1015.7
2017-09-01T07:00:49.178Z,1015.6
2017-09-01T07:01:49.817Z,1015.7
2017-09-01T07:02:50.459Z,1015.7
2017-09-01T07:03:51.352Z,1015.6
2017-09-01T07:04:52.094Z,1015.7
2017-09-01T07:05:52.735Z,1015.7
2017-09-01T07:06:53.527Z,1015.7
2017-09-01T07:07:54.167Z,1015.7
2017-09-01T07:08:55.012Z,1015.7
2017-09-01T07:09:55.654Z,1015.7
2017-09-01T07:10:56.295Z,1015.7
2017-09-01T07:11:57.088Z,1015.7
2017-09-01T07:12:57.731Z,1015.7
2017-09-01T07:13:58.373Z,1015.7
2017-09-01T07:14:59.017Z,1015.8
2017-09-01T07:15:59.812Z,1015.7
2017-09-01T07:17:00.452Z,1015.8
2017-09-01T07:18:01.095Z,1015.8
2017-09-01T07:19:01.738Z,1015.8
2017-09-01T07:20:02.481Z,1015.8
2017-09-01T07:21:03.271Z,1015.8
2017-09-01T07:22:03.915Z,1015.9
2017-09-01T07:23:04.558Z,1015.9
2017-09-01T07:24:05.207Z,1015.9
2017-09-01T07:25:05.852Z,1015.9
2017-09-01T07:26:06.496Z,1015.9
2017-09-01T07:27:07.140Z,1015.9
2017-09-01T07:28:07.785Z,1015.9
2017-09-01T07:29:08.428Z,1015.9
2017-09-01T07:30:09.224Z,1016.0
2017-09-01T07:31:09.868Z,1016.0
2017-09-01T07:32:10.548Z,1015.9
2017-09-01T07:33:11.191Z,1015.9
2017-09-01T07:34:11.839Z,1015.9
2017-09-01T07:35:12.479Z,1015.9
2017-09-01T07:36:13.123Z,1015.9
2017-09-01T07:37:13.764Z,1015.8
2017-09-01T07:38:14.556Z,1015.9
2017-09-01T07:39:15.198Z,1015.8
2017-09-01T07:40:15.840Z,1015.8
2017-09-01T07:41:16.483Z,1015.8
2017-09-01T07:42:17.323Z,1015.8
2017-09-01T07:43:18.065Z,1015.8
2017-09-01T07:44:18.706Z,1015.7
2017-09-01T07:45:19.350Z,1015.7
2017-09-01T07:46:19.993Z,1015.7
2017-09-01T07:47:20.635Z,1015.7
2017-09-01T07:48:21.278Z,1015.8
2017-09-01T07:49:21.918Z,1015.8
2017-09-01T07:50:22.712Z,1015.8
2017-09-01T07:51:23.355Z,1015.8
2017-09-01T07:52:24.000Z,1015.9
2017-09-01T07:53:24.793Z,1015.9
2017-09-01T07:54:25.437Z,1015.9
2017-09-01T07:55:26.082Z,1015.9
2017-09-01T07:56:26.732Z,1015.8
2017-09-01T07:57:27.371Z,1015.9
2017-09-01T07:58:28.015Z,1015.9
2017-09-01T07:59:28.659Z,1015.9
2017-09-01T08:00:29.405Z,1015.9
2017-09-01T08:01:30.197Z,1015.9
2017-09-01T08:02:30.841Z,1015.9
2017-09-01T08:03:31.483Z,1015.8
2017-09-01T08:04:32.376Z,1015.8
2017-09-01T08:05:33.017Z,1015.9
2017-09-01T08:06:33.762Z,1015.9
2017-09-01T08:07:34.406Z,1015.8
2017-09-01T08:08:35.050Z,1015.9
2017-09-01T08:09:35.699Z,1015.9
2017-09-01T08:10:36.339Z,1015.8
2017-09-01T08:11:37.134Z,1015.9
2017-09-01T08:12:37.779Z,1015.9
2017-09-01T08:13:38.571Z,1015.8
2017-09-01T08:14:39.213Z,1015.8
2017-09-01T08:15:39.858Z,1015.8
2017-09-01T08:16:40.502Z,1015.8
2017-09-01T08:17:41.296Z,1015.9
2017-09-01T08:18:41.940Z,1015.9
2017-09-01T08:19:42.783Z,1015.9
2017-09-01T08:20:43.424Z,1015.9
2017-09-01T08:21:44.067Z,1015.9
2017-09-01T08:22:44.713Z,1015.9
2017-09-01T08:23:45.359Z,1015.9
2017-09-01T08:24:46.002Z,1015.9
2017-09-01T08:25:46.644Z,1015.9
2017-09-01T08:26:47.286Z,1015.9
2017-09-01T08:27:47.930Z,1015.8
2017-09-01T08:28:48.673Z,1015.8
2017-09-01T08:29:49.317Z,1015.8
2017-09-01T08:30:49.960Z,1015.8
2017-09-01T08:31:50.709Z,1015.8
2017-09-01T08:32:51.346Z,1015.8
2017-09-01T08:33:51.991Z,1015.7
2017-09-01T08:34:52.640Z,1015.7
2017-09-01T08:35:53.484Z,1015.7
2017-09-01T08:36:54.277Z,1015.7
2017-09-01T08:37:54.919Z,1015.7
2017-09-01T08:38:55.562Z,1015.7
2017-09-01T08:39:56.204Z,1015.7
2017-09-01T08:40:56.845Z,1015.7
2017-09-01T08:41:57.488Z,1015.7
2017-09-01T08:42:58.130Z,1015.6
2017-09-01T08:43:58.775Z,1015.6
2017-09-01T08:44:59.419Z,1015.6
2017-09-01T08:46:00.063Z,1015.6
2017-09-01T08:47:00.704Z,1015.6
2017-09-01T08:48:01.350Z,1015.6
2017-09-01T08:49:01.993Z,1015.6
2017-09-01T08:50:02.638Z,1015.6
2017-09-01T08:51:03.281Z,1015.6
2017-09-01T08:52:04.026Z,1015.6
2017-09-01T08:53:04.670Z,1015.6
2017-09-01T08:54:05.315Z,1015.6
2017-09-01T08:55:05.959Z,1015.7
2017-09-01T08:56:06.603Z,1015.7
2017-09-01T08:57:07.449Z,1015.7
2017-09-01T08:58:08.093Z,1015.7
2017-09-01T08:59:08.735Z,1015.7
2017-09-01T09:00:09.479Z,1015.7
2017-09-01T09:01:10.274Z,1015.7
2017-09-01T09:02:10.918Z,1015.7
2017-09-01T09:03:11.662Z,1015.8
2017-09-01T09:04:12.307Z,1015.8
2017-09-01T09:05:13.055Z,1015.8
2017-09-01T09:06:13.904Z,1015.7
2017-09-01T09:07:14.548Z,1015.7
2017-09-01T09:08:15.192Z,1015.7
2017-09-01T09:09:15.837Z,1015.8
2017-09-01T09:10:16.479Z,1015.7
2017-09-01T09:11:17.279Z,1015.8
2017-09-01T09:12:17.963Z,1015.7
2017-09-01T09:13:19.108Z,1015.7
2017-09-01T09:14:19.752Z,1015.7
2017-09-01T09:15:20.498Z,1015.7
2017-09-01T09:16:21.141Z,1015.7
2017-09-01T09:17:21.784Z,1015.7
2017-09-01T09:18:22.434Z,1015.7
2017-09-01T09:19:23.074Z,1015.7
2017-09-01T09:20:23.720Z,1015.7
2017-09-01T09:21:24.363Z,1015.7
2017-09-01T09:22:25.007Z,1015.7
2017-09-01T09:23:25.651Z,1015.8
2017-09-01T09:24:26.295Z,1015.8
2017-09-01T09:25:27.139Z,1015.8
2017-09-01T09:26:27.883Z,1015.8
2017-09-01T09:27:28.527Z,1015.8
2017-09-01T09:28:29.176Z,1015.8
2017-09-01T09:29:30.168Z,1015.8
2017-09-01T09:30:30.912Z,1015.7
2017-09-01T09:31:31.555Z,1015.7
2017-09-01T09:32:32.200Z,1015.7
2017-09-01T09:33:32.995Z,1015.7
2017-09-01T09:34:33.637Z,1015.8
2017-09-01T09:35:34.281Z,1015.8
2017-09-01T09:36:34.926Z,1015.8
2017-09-01T09:37:35.569Z,1015.8
2017-09-01T09:38:36.213Z,1015.8
2017-09-01T09:39:36.857Z,1015.8
2017-09-01T09:40:37.803Z,1015.9
2017-09-01T09:41:38.446Z,1015.8
2017-09-01T09:42:39.092Z,1015.8
2017-09-01T09:43:39.733Z,1015.8
2017-09-01T09:44:40.381Z,1015.7
2017-09-01T09:45:41.023Z,1015.7
2017-09-01T09:46:41.668Z,1015.7
2017-09-01T09:47:42.313Z,1015.7
2017-09-01T09:48:42.958Z,1015.7
2017-09-01T09:49:43.602Z,1015.7
2017-09-01T09:50:44.248Z,1015.7
2017-09-01T09:51:44.893Z,1015.7
2017-09-01T09:52:45.537Z,1015.7
2017-09-01T09:53:46.181Z,1015.6
2017-09-01T09:54:46.824Z,1015.7
2017-09-01T09:55:47.617Z,1015.6
2017-09-01T09:56:48.411Z,1015.6
2017-09-01T09:57:49.055Z,1015.6
2017-09-01T09:58:49.700Z,1015.6
2017-09-01T09:59:50.594Z,1015.5
2017-09-01T10:00:51.490Z,1015.6
2017-09-01T10:01:52.132Z,1015.5
2017-09-01T10:02:52.776Z,1015.5
2017-09-01T10:03:53.419Z,1015.5
2017-09-01T10:04:54.613Z,1015.5
2017-09-01T10:05:55.262Z,1015.5
2017-09-01T10:06:55.905Z,1015.5
2017-09-01T10:07:56.549Z,1015.5
2017-09-01T10:08:57.191Z,1015.5
2017-09-01T10:09:57.835Z,1015.6
2017-09-01T10:10:58.678Z,1015.5
2017-09-01T10:11:59.322Z,1015.5
2017-09-01T10:13:00.066Z,1015.5
2017-09-01T10:14:00.869Z,1015.5
2017-09-01T10:15:01.504Z,1015.5
2017-09-01T10:16:02.148Z,1015.5
2017-09-01T10:17:02.792Z,1015.5
2017-09-01T10:18:03.441Z,1015.6
2017-09-01T10:19:04.080Z,1015.5
2017-09-01T10:20:04.723Z,1015.5
2017-09-01T10:21:05.469Z,1015.5
2017-09-01T10:22:06.112Z,1015.5
2017-09-01T10:23:06.756Z,1015.5
2017-09-01T10:24:07.607Z,1015.5
2017-09-01T10:25:08.407Z,1015.5
2017-09-01T10:26:09.051Z,1015.5
2017-09-01T10:27:09.695Z,1015.4
2017-09-01T10:28:10.339Z,1015.5
2017-09-01T10:29:10.982Z,1015.4
2017-09-01T10:30:11.726Z,1015.5
2017-09-01T10:31:12.471Z,1015.4
2017-09-01T10:32:14.118Z,1015.4
2017-09-01T10:33:14.822Z,1015.4
2017-09-01T10:34:15.468Z,1015.5
2017-09-01T10:35:16.115Z,1015.5
2017-09-01T10:36:16.757Z,1015.5
2017-09-01T10:37:17.402Z,1015.4
2017-09-01T10:38:18.058Z,1015.5
2017-09-01T10:39:18.691Z,1015.5
2017-09-01T10:40:19.337Z,1015.4
2017-09-01T10:41:19.980Z,1015.4
2017-09-01T10:42:20.626Z,1015.4
2017-09-01T10:43:21.267Z,1015.4
2017-09-01T10:44:21.918Z,1015.5
2017-09-01T10:45:22.558Z,1015.4
2017-09-01T10:46:23.304Z,1015.4
2017-09-01T10:47:23.948Z,1015.4
2017-09-01T10:48:24.593Z,1015.4
2017-09-01T10:49:25.237Z,1015.4
2017-09-01T10:50:25.886Z,1015.4
2017-09-01T10:51:26.525Z,1015.4
2017-09-01T10:52:27.170Z,1015.4
2017-09-01T10:53:27.815Z,1015.4
2017-09-01T10:54:28.714Z,1015.3
2017-09-01T10:55:29.351Z,1015.4
2017-09-01T10:56:30.396Z,1015.3
2017-09-01T10:57:31.040Z,1015.4
2017-09-01T10:58:31.683Z,1015.4
2017-09-01T10:59:32.328Z,1015.4
2017-09-01T11:00:33.122Z,1015.4
2017-09-01T11:01:33.865Z,1015.4
2017-09-01T11:02:34.511Z,1015.4
2017-09-01T11:03:35.154Z,1015.4
2017-09-01T11:04:35.798Z,1015.4
2017-09-01T11:05:36.542Z,1015.4
2017-09-01T11:06:37.185Z,1015.4
2017-09-01T11:07:37.829Z,1015.4
2017-09-01T11:08:38.472Z,1015.4
2017-09-01T11:09:39.316Z,1015.4
2017-09-01T11:10:39.961Z,1015.3
2017-09-01T11:11:40.607Z,1015.3
2017-09-01T11:12:41.250Z,1015.4
2017-09-01T11:13:41.995Z,1015.3
2017-09-01T11:14:42.638Z,1015.3
2017-09-01T11:15:43.282Z,1015.3
2017-09-01T11:16:43.925Z,1015.3
2017-09-01T11:17:45.120Z,1015.3
2017-09-01T11:18:45.915Z,1015.3
2017-09-01T11:19:46.758Z,1015.3
2017-09-01T11:20:47.404Z,1015.3
2017-09-01T11:21:48.243Z,1015.4
2017-09-01T11:22:48.893Z,1015.3
2017-09-01T11:23:49.682Z,1015.3
2017-09-01T11:24:50.329Z,1015.3
2017-09-01T11:25:50.970Z,1015.3
2017-09-01T11:26:51.615Z,1015.3
2017-09-01T11:27:52.559Z,1015.3
2017-09-01T11:28:53.204Z,1015.3
2017-09-01T11:29:53.847Z,1015.3
2017-09-01T11:30:54.492Z,1015.3
2017-09-01T11:31:55.136Z,1015.2
2017-09-01T11:32:55.781Z,1015.2
2017-09-01T11:33:56.424Z,1015.2
2017-09-01T11:34:57.220Z,1015.2
2017-09-01T11:35:57.865Z,1015.2
2017-09-01T11:36:58.508Z,1015.1
2017-09-01T11:37:59.155Z,1015.2
2017-09-01T11:38:59.800Z,1015.2
2017-09-01T11:40:00.694Z,1015.2
2017-09-01T11:41:01.337Z,1015.1
2017-09-01T11:42:01.985Z,1015.1
2017-09-01T11:43:02.627Z,1015.1
2017-09-01T11:44:03.271Z,1015.2
2017-09-01T11:45:03.915Z,1015.1
2017-09-01T11:46:04.561Z,1015.1
2017-09-01T11:47:05.204Z,1015.1
2017-09-01T11:48:05.849Z,1015.1
2017-09-01T11:49:06.492Z,1015.1
2017-09-01T11:50:07.138Z,1015.1
2017-09-01T11:51:07.781Z,1015.1
2017-09-01T11:52:08.518Z,1015.1
2017-09-01T11:53:09.410Z,1015.1
2017-09-01T11:54:10.206Z,1015.1
2017-09-01T11:55:10.959Z,1015.1
2017-09-01T11:56:11.597Z,1015.1
2017-09-01T11:57:12.244Z,1015.0
2017-09-01T11:58:12.889Z,1015.1
2017-09-01T11:59:13.533Z,1015.0
2017-09-01T12:00:14.328Z,1015.0
2017-09-01T12:01:15.224Z,1015.0
2017-09-01T12:02:15.970Z,1015.0
2017-09-01T12:03:16.612Z,1015.0
2017-09-01T12:04:17.258Z,1015.0
2017-09-01T12:05:18.050Z,1015.0
2017-09-01T12:06:18.693Z,1015.0
2017-09-01T12:07:19.441Z,1014.9
2017-09-01T12:08:20.087Z,1015.0
2017-09-01T12:09:20.733Z,1014.9
2017-09-01T12:10:21.382Z,1014.9
2017-09-01T12:11:22.025Z,1014.9
2017-09-01T12:12:22.706Z,1014.9
2017-09-01T12:13:23.424Z,1014.9
2017-09-01T12:14:24.069Z,1014.9
2017-09-01T12:15:24.719Z,1014.9
2017-09-01T12:16:25.509Z,1014.9
2017-09-01T12:17:26.154Z,1014.8
2017-09-01T12:18:26.949Z,1014.9
2017-09-01T12:19:27.594Z,1014.9
2017-09-01T12:20:28.238Z,1014.9
2017-09-01T12:21:28.883Z,1014.9
2017-09-01T12:22:29.528Z,1014.8
2017-09-01T12:23:30.174Z,1014.8
2017-09-01T12:24:30.967Z,1014.8
2017-09-01T12:25:31.612Z,1014.8
2017-09-01T12:26:32.262Z,1014.8
2017-09-01T12:27:32.904Z,1014.7
2017-09-01T12:28:33.548Z,1014.8
2017-09-01T12:29:34.190Z,1014.7
2017-09-01T12:30:34.836Z,1014.7
2017-09-01T12:31:35.477Z,1014.7
2017-09-01T12:32:36.271Z,1014.7
2017-09-01T12:33:36.917Z,1014.7
2017-09-01T12:34:37.562Z,1014.7
2017-09-01T12:35:38.203Z,1014.6
2017-09-01T12:36:38.996Z,1014.6